createdAt,value
2017-07-23T00:00:26.073Z,21.90
2017-07-23T00:02:59.922Z,21.90
2017-07-23T00:05:34.368Z,21.80
2017-07-23T00:08:08.335Z,21.80
2017-07-23T00:10:42.012Z,21.80
2017-07-23T00:13:15.663Z,21.80
2017-07-23T00:15:49.431Z,21.80
2017-07-23T00:18:23.073Z,21.80
2017-07-23T00:20:57.513Z,21.70
2017-07-23T00:23:32.089Z,21.70
2017-07-23T00:26:06.296Z,21.70
2017-07-23T00:28:39.929Z,21.70
2017-07-23T00:31:13.779Z,21.70
2017-07-23T00:33:48.393Z,21.70
2017-07-23T00:36:22.941Z,21.70
2017-07-23T00:38:57.525Z,21.70
2017-07-23T00:41:31.270Z,21.70
2017-07-23T00:44:05.800Z,21.70
2017-07-23T00:46:40.382Z,21.70
2017-07-23T00:49:14.181Z,21.60
2017-07-23T00:51:48.809Z,21.70
2017-07-23T00:54:23.605Z,21.60
2017-07-23T00:56:57.696Z,21.60
2017-07-23T00:59:32.137Z,21.60
2017-07-23T01:02:06.129Z,21.50
2017-07-23T01:04:40.573Z,21.50
2017-07-23T01:07:14.362Z,21.50
2017-07-23T01:09:47.937Z,21.50
2017-07-23T01:12:22.659Z,21.50
2017-07-23T01:14:57.346Z,21.40
2017-07-23T01:17:32.001Z,21.40
2017-07-23T01:20:05.949Z,21.40
2017-07-23T01:22:40.521Z,21.40
2017-07-23T01:25:14.530Z,21.30
2017-07-23T01:27:48.329Z,21.40
2017-07-23T01:30:21.937Z,21.40
2017-07-23T01:32:55.837Z,21.30
2017-07-23T01:35:30.371Z,21.30
2017-07-23T01:38:04.404Z,21.30
2017-07-23T01:40:38.977Z,21.20
2017-07-23T01:43:12.672Z,21.20
2017-07-23T01:45:46.312Z,21.20
2017-07-23T01:48:20.936Z,21.20
2017-07-23T01:50:54.640Z,21.10
2017-07-23T01:53:28.541Z,21.10
2017-07-23T01:56:02.123Z,21.10
2017-07-23T01:58:36.661Z,21.20
2017-07-23T02:01:10.582Z,21.10
2017-07-23T02:03:44.428Z,21.10
2017-07-23T02:06:18.881Z,21.10
2017-07-23T02:08:52.954Z,21.00
2017-07-23T02:11:27.492Z,21.00
2017-07-23T02:14:02.088Z,21.00
2017-07-23T02:16:35.952Z,21.00
2017-07-23T02:19:10.491Z,20.90
2017-07-23T02:21:44.233Z,20.90
2017-07-23T02:24:18.127Z,20.90
2017-07-23T02:26:51.813Z,20.90
2017-07-23T02:29:26.428Z,20.80
2017-07-23T02:32:00.397Z,20.80
2017-07-23T02:34:34.213Z,20.80
2017-07-23T02:37:08.744Z,20.80
2017-07-23T02:39:42.725Z,20.70
2017-07-23T02:42:16.388Z,20.70
2017-07-23T02:44:51.289Z,20.70
2017-07-23T02:47:25.809Z,20.70
2017-07-23T02:50:00.050Z,20.70
2017-07-23T02:52:34.436Z,20.70
2017-07-23T02:55:09.313Z,20.70
2017-07-23T02:57:43.177Z,20.60
2017-07-23T03:00:17.664Z,20.70
2017-07-23T03:02:51.710Z,20.60
2017-07-23T03:05:26.280Z,20.70
2017-07-23T03:08:00.197Z,20.70
2017-07-23T03:10:34.163Z,20.70
2017-07-23T03:13:07.752Z,20.70
2017-07-23T03:15:42.396Z,20.60
2017-07-23T03:18:17.030Z,20.60
2017-07-23T03:20:51.878Z,20.60
2017-07-23T03:23:25.740Z,20.60
2017-07-23T03:26:00.208Z,20.50
2017-07-23T03:28:34.117Z,20.50
2017-07-23T03:31:08.642Z,20.50
2017-07-23T03:33:43.345Z,20.50
2017-07-23T03:36:17.990Z,20.50
2017-07-23T03:38:52.673Z,20.50
2017-07-23T03:41:26.704Z,20.40
2017-07-23T03:44:00.469Z,20.50
2017-07-23T03:46:34.966Z,20.50
2017-07-23T03:49:08.945Z,20.40
2017-07-23T03:51:43.601Z,20.50
2017-07-23T03:54:17.577Z,20.40
2017-07-23T03:56:52.134Z,20.50
2017-07-23T03:59:26.084Z,20.40
2017-07-23T04:02:00.773Z,20.50
2017-07-23T04:04:34.676Z,20.50
2017-07-23T04:07:08.481Z,20.50
2017-07-23T04:09:43.890Z,20.50
2017-07-23T04:12:18.521Z,20.40
2017-07-23T04:14:52.452Z,20.40
2017-07-23T04:17:26.160Z,20.40
2017-07-23T04:19:59.821Z,20.50
2017-07-23T04:22:33.472Z,20.50
2017-07-23T04:25:07.993Z,20.50
2017-07-23T04:27:42.409Z,20.40
2017-07-23T04:30:17.092Z,20.50
2017-07-23T04:32:50.973Z,20.40
2017-07-23T04:35:25.421Z,20.40
2017-07-23T04:37:59.417Z,20.40
2017-07-23T04:40:33.137Z,20.50
2017-07-23T04:43:07.750Z,20.40
2017-07-23T04:45:41.469Z,20.40
2017-07-23T04:48:15.126Z,20.40
2017-07-23T04:50:49.593Z,20.30
2017-07-23T04:53:23.580Z,20.20
2017-07-23T04:55:57.925Z,20.20
2017-07-23T04:58:32.004Z,20.20
2017-07-23T05:01:05.712Z,20.20
2017-07-23T05:03:40.356Z,20.20
2017-07-23T05:06:14.784Z,20.20
2017-07-23T05:08:48.723Z,20.20
2017-07-23T05:11:22.432Z,20.30
2017-07-23T05:13:56.297Z,20.30
2017-07-23T05:16:30.063Z,20.30
2017-07-23T05:19:03.729Z,20.30
2017-07-23T05:21:38.236Z,20.40
2017-07-23T05:24:12.124Z,20.30
2017-07-23T05:26:46.565Z,20.40
2017-07-23T05:29:20.437Z,20.40
2017-07-23T05:31:54.896Z,20.40
2017-07-23T05:34:28.995Z,20.40
2017-07-23T05:37:03.513Z,20.50
2017-07-23T05:39:37.217Z,20.50
2017-07-23T05:42:10.881Z,20.50
2017-07-23T05:44:44.713Z,20.50
2017-07-23T05:47:19.225Z,20.40
2017-07-23T05:49:53.876Z,20.40
2017-07-23T05:52:27.661Z,20.40
2017-07-23T05:55:01.317Z,20.40
2017-07-23T05:57:35.044Z,20.30
2017-07-23T06:00:08.750Z,20.30
2017-07-23T06:02:42.344Z,20.30
2017-07-23T06:05:17.062Z,20.30
2017-07-23T06:07:51.086Z,20.20
2017-07-23T06:10:24.877Z,20.30
2017-07-23T06:12:58.595Z,20.30
2017-07-23T06:15:33.076Z,20.40
2017-07-23T06:18:06.830Z,20.50
2017-07-23T06:20:41.358Z,20.50
2017-07-23T06:23:16.061Z,20.50
2017-07-23T06:25:51.008Z,20.60
2017-07-23T06:28:24.953Z,20.60
2017-07-23T06:30:58.874Z,20.50
2017-07-23T06:33:33.405Z,20.60
2017-07-23T06:36:07.356Z,20.50
2017-07-23T06:38:41.003Z,20.60
2017-07-23T06:41:14.817Z,20.70
2017-07-23T06:43:48.580Z,20.70
2017-07-23T06:46:22.212Z,20.70
2017-07-23T06:48:56.657Z,20.80
2017-07-23T06:51:30.574Z,20.80
2017-07-23T06:54:05.078Z,20.80
2017-07-23T06:56:38.993Z,20.80
2017-07-23T06:59:13.544Z,20.90
2017-07-23T07:01:47.377Z,20.90
2017-07-23T07:04:21.745Z,20.80
2017-07-23T07:06:56.400Z,20.90
2017-07-23T07:09:30.308Z,20.80
2017-07-23T07:12:04.838Z,20.90
2017-07-23T07:14:38.821Z,20.90
2017-07-23T07:17:13.456Z,21.00
2017-07-23T07:19:47.352Z,20.90
2017-07-23T07:22:21.813Z,21.10
2017-07-23T07:24:56.402Z,21.10
2017-07-23T07:27:31.070Z,21.20
2017-07-23T07:30:05.014Z,21.10
2017-07-23T07:32:39.017Z,21.30
2017-07-23T07:35:12.670Z,21.50
2017-07-23T07:37:48.133Z,21.60
2017-07-23T07:40:23.065Z,21.50
2017-07-23T07:42:57.682Z,21.60
2017-07-23T07:45:31.276Z,21.70
2017-07-23T07:48:04.989Z,21.80
2017-07-23T07:50:40.277Z,21.70
2017-07-23T07:53:14.457Z,21.70
2017-07-23T07:55:48.892Z,21.60
2017-07-23T07:58:22.566Z,21.60
2017-07-23T08:00:56.229Z,21.60
2017-07-23T08:03:30.813Z,21.60
2017-07-23T08:06:04.409Z,21.70
2017-07-23T08:08:38.081Z,21.70
2017-07-23T08:11:11.692Z,21.60
2017-07-23T08:13:45.537Z,21.70
2017-07-23T08:16:19.126Z,21.80
2017-07-23T08:18:52.816Z,21.90
2017-07-23T08:21:26.410Z,21.90
2017-07-23T08:24:00.833Z,22.10
2017-07-23T08:26:34.653Z,22.00
2017-07-23T08:29:08.429Z,22.00
2017-07-23T08:31:42.913Z,22.30
2017-07-23T08:34:16.917Z,22.20
2017-07-23T08:36:50.512Z,22.50
2017-07-23T08:39:24.309Z,22.40
2017-07-23T08:41:58.746Z,22.40
2017-07-23T08:44:32.614Z,22.30
2017-07-23T08:47:07.189Z,22.50
2017-07-23T08:49:40.956Z,22.50
2017-07-23T08:52:15.421Z,22.40
2017-07-23T08:54:49.389Z,22.30
2017-07-23T08:57:22.951Z,22.30
2017-07-23T08:59:56.693Z,22.40
2017-07-23T09:02:31.290Z,22.50
2017-07-23T09:05:05.902Z,22.30
2017-07-23T09:07:40.509Z,22.30
2017-07-23T09:10:15.061Z,22.30
2017-07-23T09:12:48.818Z,22.20
2017-07-23T09:15:24.385Z,22.20
2017-07-23T09:17:58.104Z,22.20
2017-07-23T09:20:31.773Z,22.20
2017-07-23T09:23:06.281Z,22.30
2017-07-23T09:25:40.041Z,22.30
2017-07-23T09:28:14.519Z,22.40
2017-07-23T09:30:49.088Z,22.10
2017-07-23T09:33:23.545Z,22.10
2017-07-23T09:35:57.186Z,22.10
2017-07-23T09:38:31.732Z,22.10
2017-07-23T09:41:06.135Z,22.00
2017-07-23T09:43:40.069Z,21.90
2017-07-23T09:46:15.676Z,22.00
2017-07-23T09:48:49.421Z,21.90
2017-07-23T09:51:24.032Z,22.00
2017-07-23T09:53:58.641Z,22.10
2017-07-23T09:56:33.391Z,22.20
2017-07-23T09:59:07.205Z,22.20
2017-07-23T10:01:41.849Z,22.30
2017-07-23T10:04:17.125Z,22.70
2017-07-23T10:06:51.139Z,22.70
2017-07-23T10:09:24.745Z,22.90
2017-07-23T10:11:58.417Z,22.90
2017-07-23T10:14:32.069Z,22.90
2017-07-23T10:17:05.736Z,23.00
2017-07-23T10:19:40.172Z,23.10
2017-07-23T10:22:15.062Z,23.10
2017-07-23T10:24:48.785Z,23.00
2017-07-23T10:27:22.506Z,23.10
2017-07-23T10:29:56.997Z,22.80
2017-07-23T10:32:30.833Z,22.60
2017-07-23T10:35:04.455Z,22.70
2017-07-23T10:37:39.089Z,22.60
2017-07-23T10:40:12.914Z,22.60
2017-07-23T10:42:47.325Z,23.10
2017-07-23T10:45:21.143Z,23.00
2017-07-23T10:47:55.757Z,23.30
2017-07-23T10:50:29.596Z,23.20
2017-07-23T10:53:04.325Z,23.10
2017-07-23T10:55:38.673Z,23.00
2017-07-23T10:58:12.648Z,22.90
2017-07-23T11:00:47.105Z,23.10
2017-07-23T11:03:21.132Z,23.10
2017-07-23T11:05:55.697Z,22.90
2017-07-23T11:08:30.216Z,22.70
2017-07-23T11:11:04.796Z,22.70
2017-07-23T11:13:38.797Z,22.70
2017-07-23T11:16:13.277Z,22.70
2017-07-23T11:18:46.868Z,22.80
2017-07-23T11:21:21.237Z,22.80
2017-07-23T11:23:55.061Z,22.80
2017-07-23T11:26:28.802Z,22.80
2017-07-23T11:29:03.225Z,22.60
2017-07-23T11:31:37.050Z,22.60
2017-07-23T11:34:10.683Z,22.70
2017-07-23T11:36:45.101Z,22.90
2017-07-23T11:39:19.285Z,22.80
2017-07-23T11:41:52.993Z,22.90
2017-07-23T11:44:26.853Z,22.80
2017-07-23T11:47:00.575Z,22.80
2017-07-23T11:49:34.348Z,23.00
2017-07-23T11:52:07.986Z,23.10
2017-07-23T11:54:41.777Z,23.10
2017-07-23T11:57:15.390Z,23.30
2017-07-23T11:59:49.077Z,23.40
2017-07-23T12:02:23.598Z,23.30
2017-07-23T12:04:57.348Z,23.40
2017-07-23T12:07:31.103Z,23.40
2017-07-23T12:10:05.725Z,23.40
2017-07-23T12:12:40.121Z,23.50
2017-07-23T12:15:15.200Z,23.40
2017-07-23T12:17:49.681Z,23.10
2017-07-23T12:20:24.256Z,23.10
2017-07-23T12:22:59.036Z,23.00
2017-07-23T12:25:33.136Z,23.00
2017-07-23T12:28:07.565Z,22.80
2017-07-23T12:30:42.030Z,22.80
2017-07-23T12:33:16.091Z,23.00
2017-07-23T12:35:50.008Z,23.20
2017-07-23T12:38:23.645Z,23.20
2017-07-23T12:40:58.292Z,23.00
2017-07-23T12:43:32.152Z,23.00
2017-07-23T12:46:05.921Z,23.10
2017-07-23T12:48:40.377Z,23.30
2017-07-23T12:51:14.469Z,23.20
2017-07-23T12:53:48.141Z,23.20
2017-07-23T12:56:21.772Z,23.10
2017-07-23T12:58:55.393Z,23.10
2017-07-23T13:01:29.169Z,23.10
2017-07-23T13:04:02.901Z,23.10
2017-07-23T13:06:36.666Z,23.10
2017-07-23T13:09:11.024Z,23.50
2017-07-23T13:11:44.949Z,23.40
2017-07-23T13:14:19.494Z,23.70
2017-07-23T13:16:54.080Z,23.80
2017-07-23T13:19:27.689Z,23.90
2017-07-23T13:22:01.423Z,24.00
2017-07-23T13:24:35.029Z,24.10
2017-07-23T13:27:09.649Z,24.00
2017-07-23T13:29:43.471Z,23.90
2017-07-23T13:32:17.808Z,23.90
2017-07-23T13:34:51.644Z,24.00
2017-07-23T13:37:26.269Z,24.20
2017-07-23T13:40:00.792Z,24.50
2017-07-23T13:42:35.585Z,24.50
2017-07-23T13:45:10.149Z,24.50
2017-07-23T13:47:44.814Z,24.40
2017-07-23T13:50:18.812Z,24.40
2017-07-23T13:52:52.595Z,24.30
2017-07-23T13:55:27.044Z,24.10
2017-07-23T13:58:00.941Z,24.20
2017-07-23T14:00:34.564Z,24.10
2017-07-23T14:03:09.085Z,24.20
2017-07-23T14:05:43.677Z,24.40
2017-07-23T14:08:17.804Z,24.30
2017-07-23T14:10:51.517Z,24.20
2017-07-23T14:13:25.422Z,24.40
2017-07-23T14:15:58.999Z,24.30
2017-07-23T14:18:32.799Z,24.50
2017-07-23T14:21:07.325Z,24.50
2017-07-23T14:23:41.890Z,24.30
2017-07-23T14:26:15.689Z,24.30
2017-07-23T14:28:49.373Z,24.30
2017-07-23T14:31:23.092Z,24.00
2017-07-23T14:33:57.629Z,23.90
2017-07-23T14:36:32.340Z,23.80
2017-07-23T14:39:07.195Z,24.00
2017-07-23T14:41:41.081Z,24.00
2017-07-23T14:44:15.598Z,25.00
2017-07-23T14:46:49.418Z,24.90
2017-07-23T14:49:23.943Z,25.40
2017-07-23T14:51:57.826Z,25.40
2017-07-23T14:54:31.565Z,25.50
2017-07-23T14:57:06.049Z,25.90
2017-07-23T14:59:40.909Z,25.90
2017-07-23T15:02:14.813Z,25.90
2017-07-23T15:04:48.778Z,25.80
2017-07-23T15:07:22.512Z,25.50
2017-07-23T15:09:56.409Z,25.20
2017-07-23T15:12:30.025Z,24.90
2017-07-23T15:15:04.574Z,24.70
2017-07-23T15:17:39.147Z,24.50
2017-07-23T15:20:13.144Z,24.50
2017-07-23T15:22:47.662Z,24.60
2017-07-23T15:25:22.136Z,24.70
2017-07-23T15:27:56.040Z,24.70
2017-07-23T15:30:29.671Z,24.70
2017-07-23T15:33:03.358Z,24.60
2017-07-23T15:35:37.128Z,24.40
2017-07-23T15:38:10.703Z,24.50
2017-07-23T15:40:45.256Z,24.80
2017-07-23T15:43:19.089Z,24.70
2017-07-23T15:45:53.653Z,24.90
2017-07-23T15:48:28.087Z,24.90
2017-07-23T15:51:02.012Z,24.80
2017-07-23T15:53:35.657Z,24.80
2017-07-23T15:56:09.335Z,24.70
2017-07-23T15:58:43.008Z,24.50
2017-07-23T16:01:16.813Z,24.40
2017-07-23T16:03:51.368Z,24.30
2017-07-23T16:06:25.164Z,24.20
2017-07-23T16:08:58.752Z,24.30
2017-07-23T16:11:32.441Z,24.10
2017-07-23T16:14:06.056Z,23.90
2017-07-23T16:16:42.645Z,23.60
2017-07-23T16:19:16.366Z,23.60
2017-07-23T16:21:50.148Z,23.50
2017-07-23T16:24:23.782Z,23.60
2017-07-23T16:26:58.393Z,23.50
2017-07-23T16:29:32.765Z,23.40
2017-07-23T16:32:06.807Z,23.30
2017-07-23T16:34:40.533Z,23.30
2017-07-23T16:37:15.265Z,23.30
2017-07-23T16:39:50.069Z,23.30
2017-07-23T16:42:24.208Z,23.30
2017-07-23T16:44:58.725Z,23.50
2017-07-23T16:47:34.333Z,23.40
2017-07-23T16:50:08.087Z,23.40
2017-07-23T16:52:41.904Z,23.50
2017-07-23T16:55:15.593Z,23.60
2017-07-23T16:57:50.011Z,23.50
2017-07-23T17:00:24.273Z,23.40
2017-07-23T17:02:58.477Z,23.50
2017-07-23T17:05:32.185Z,23.50
2017-07-23T17:08:05.953Z,23.40
2017-07-23T17:10:40.420Z,23.50
2017-07-23T17:13:14.515Z,23.50
2017-07-23T17:15:48.190Z,23.60
2017-07-23T17:18:22.721Z,23.70
2017-07-23T17:20:56.624Z,23.70
2017-07-23T17:23:31.036Z,23.80
2017-07-23T17:26:05.713Z,23.80
2017-07-23T17:28:39.926Z,23.80
2017-07-23T17:31:13.604Z,23.70
2017-07-23T17:33:47.364Z,23.70
2017-07-23T17:36:21.016Z,23.90
2017-07-23T17:38:54.881Z,24.00
2017-07-23T17:41:28.660Z,24.00
2017-07-23T17:44:03.229Z,24.00
2017-07-23T17:46:36.861Z,23.90
2017-07-23T17:49:12.282Z,23.80
2017-07-23T17:51:46.137Z,23.70
2017-07-23T17:54:19.893Z,23.70
2017-07-23T17:56:53.536Z,23.60
2017-07-23T17:59:27.201Z,23.60
2017-07-23T18:02:01.564Z,23.50
2017-07-23T18:04:35.664Z,23.50
2017-07-23T18:07:11.027Z,23.50
2017-07-23T18:09:44.994Z,23.50
2017-07-23T18:12:20.276Z,23.60
2017-07-23T18:14:56.132Z,23.60
2017-07-23T18:17:29.876Z,23.60
2017-07-23T18:20:03.585Z,23.60
2017-07-23T18:22:37.129Z,23.50
2017-07-23T18:25:11.688Z,23.50
2017-07-23T18:27:46.078Z,23.30
2017-07-23T18:30:20.077Z,23.20
2017-07-23T18:32:54.493Z,23.20
2017-07-23T18:35:28.184Z,23.00
2017-07-23T18:38:03.464Z,22.80
2017-07-23T18:40:37.445Z,22.80
2017-07-23T18:43:11.056Z,22.70
2017-07-23T18:45:44.813Z,22.60
2017-07-23T18:48:18.416Z,22.50
2017-07-23T18:50:53.042Z,22.50
2017-07-23T18:53:26.992Z,22.40
2017-07-23T18:56:01.552Z,22.30
2017-07-23T18:58:35.406Z,22.30
2017-07-23T19:01:09.157Z,22.30
2017-07-23T19:03:42.712Z,22.20
2017-07-23T19:06:17.929Z,22.10
2017-07-23T19:08:52.505Z,21.90
2017-07-23T19:11:26.712Z,21.90
2017-07-23T19:14:01.269Z,21.90
2017-07-23T19:16:35.253Z,21.70
2017-07-23T19:19:09.779Z,21.50
2017-07-23T19:21:43.837Z,21.50
2017-07-23T19:24:18.198Z,21.30
2017-07-23T19:26:52.187Z,21.20
2017-07-23T19:29:25.812Z,21.20
2017-07-23T19:31:59.570Z,21.10
2017-07-23T19:34:33.936Z,20.90
2017-07-23T19:37:07.816Z,20.80
2017-07-23T19:39:43.201Z,20.60
2017-07-23T19:42:17.343Z,20.50
2017-07-23T19:44:50.985Z,20.50
2017-07-23T19:47:24.737Z,20.40
2017-07-23T19:49:58.438Z,20.30
2017-07-23T19:52:32.107Z,20.20
2017-07-23T19:55:05.820Z,20.20
2017-07-23T19:57:39.575Z,20.20
2017-07-23T20:00:13.948Z,20.10
2017-07-23T20:02:48.151Z,20.00
2017-07-23T20:05:22.679Z,20.00
2017-07-23T20:07:56.747Z,20.00
2017-07-23T20:10:30.350Z,20.00
2017-07-23T20:13:04.904Z,20.00
2017-07-23T20:15:38.537Z,19.90
2017-07-23T20:18:13.168Z,19.90
2017-07-23T20:20:46.989Z,19.80
2017-07-23T20:23:20.778Z,19.80
2017-07-23T20:25:55.280Z,19.80
2017-07-23T20:28:29.366Z,19.80
2017-07-23T20:31:03.712Z,19.80
2017-07-23T20:33:37.593Z,19.70
2017-07-23T20:36:12.144Z,19.70
2017-07-23T20:38:46.921Z,19.80
2017-07-23T20:41:20.889Z,19.70
2017-07-23T20:43:54.657Z,19.80
2017-07-23T20:46:28.517Z,19.80
2017-07-23T20:49:03.077Z,19.70
2017-07-23T20:51:37.124Z,19.60
2017-07-23T20:54:11.794Z,19.70
2017-07-23T20:56:45.635Z,19.60
2017-07-23T20:59:19.518Z,19.70
2017-07-23T21:01:54.067Z,19.70
2017-07-23T21:04:28.652Z,19.80
2017-07-23T21:07:02.554Z,19.70
2017-07-23T21:09:36.286Z,19.80
2017-07-23T21:12:09.928Z,19.80
2017-07-23T21:14:45.722Z,19.70
2017-07-23T21:17:19.441Z,19.70
2017-07-23T21:19:53.250Z,19.70
2017-07-23T21:22:27.802Z,19.60
2017-07-23T21:25:01.545Z,19.60
2017-07-23T21:27:35.296Z,19.60
2017-07-23T21:30:09.146Z,19.60
2017-07-23T21:32:43.601Z,19.60
2017-07-23T21:35:17.400Z,19.50
2017-07-23T21:37:51.017Z,19.50
2017-07-23T21:40:24.982Z,19.50
2017-07-23T21:42:58.672Z,19.50
2017-07-23T21:45:33.516Z,19.40
2017-07-23T21:48:07.222Z,19.40
2017-07-23T21:50:41.793Z,19.40
2017-07-23T21:53:16.472Z,19.40
2017-07-23T21:55:50.504Z,19.40
2017-07-23T21:58:25.000Z,19.40
2017-07-23T22:00:59.113Z,19.40
2017-07-23T22:03:32.792Z,19.40
2017-07-23T22:06:07.373Z,19.40
2017-07-23T22:08:41.769Z,19.40
2017-07-23T22:11:16.596Z,19.40
2017-07-23T22:13:50.509Z,19.30
2017-07-23T22:16:24.301Z,19.40
2017-07-23T22:18:57.914Z,19.40
2017-07-23T22:21:32.477Z,19.40
2017-07-23T22:24:06.446Z,19.30
2017-07-23T22:26:40.178Z,19.30
2017-07-23T22:29:13.953Z,19.40
2017-07-23T22:31:47.842Z,19.30
2017-07-23T22:34:21.503Z,19.30
2017-07-23T22:36:55.145Z,19.30
2017-07-23T22:39:29.581Z,19.10
2017-07-23T22:42:03.640Z,19.10
2017-07-23T22:44:38.226Z,19.10
2017-07-23T22:47:14.397Z,19.10
2017-07-23T22:49:48.105Z,19.00
2017-07-23T22:52:22.650Z,19.00
2017-07-23T22:54:57.228Z,19.00
2017-07-23T22:57:31.317Z,19.00
2017-07-23T23:00:05.659Z,19.00
2017-07-23T23:02:39.762Z,18.90
2017-07-23T23:05:13.454Z,19.00
2017-07-23T23:07:47.255Z,19.00
2017-07-23T23:10:21.707Z,18.90
2017-07-23T23:12:55.510Z,18.80
2017-07-23T23:15:30.033Z,18.70
2017-07-23T23:18:04.810Z,18.70
2017-07-23T23:20:38.781Z,18.70
2017-07-23T23:23:12.541Z,18.70
2017-07-23T23:25:46.100Z,18.70
2017-07-23T23:28:20.545Z,18.60
2017-07-23T23:30:55.121Z,18.60
2017-07-23T23:33:29.083Z,18.50
2017-07-23T23:36:03.589Z,18.60
2017-07-23T23:38:38.118Z,18.50
2017-07-23T23:41:12.103Z,18.50
2017-07-23T23:43:45.884Z,18.60
2017-07-23T23:46:20.464Z,18.60
2017-07-23T23:48:54.237Z,18.60
2017-07-23T23:51:27.867Z,18.60
2017-07-23T23:54:01.556Z,18.60
2017-07-23T23:56:36.093Z,18.60
2017-07-23T23:59:09.898Z,18.50
